Time;durP1;ratioP1;P1;durP2;ratioP2;P2;SDS_P1;SDS_P2;PMS_P1;PMS_P2;Temp;Humidity;BMP_temperature;BMP_pressure;BME280_temperature;BME280_humidity;BME280_pressure;Samples;Min_cycle;Max_cycle;Signal;HPM_P1;HPM_P2
2022/03/26 00:01:06;;;;;;;42.60;30.03;;;6.80;99.90;;;7.47;85.76;-19981.34;5011250;28;20316;-60
2022/03/26 00:03:36;;;;;;;42.60;29.53;;;6.70;99.90;;;7.34;86.77;-19976.91;5011209;28;20256;-57
2022/03/26 00:06:07;;;;;;;46.87;30.37;;;6.70;99.90;;;7.35;86.60;-19977.25;5010909;28;20264;-56
2022/03/26 00:08:35;;;;;;;43.70;30.90;;;6.60;99.90;;;7.22;87.56;-19972.81;5012044;28;20297;-59
2022/03/26 00:11:03;;;;;;;44.83;30.23;;;6.60;99.90;;;7.36;86.82;-19977.59;5011187;28;20228;-56
2022/03/26 00:13:32;;;;;;;42.37;30.00;;;6.60;99.90;;;7.26;86.82;-19974.00;5010968;28;20233;-59
2022/03/26 00:16:01;;;;;;;46.40;30.20;;;6.50;99.90;;;7.41;86.13;-19979.13;5011037;28;20312;-58
2022/03/26 00:18:29;;;;;;;44.63;30.03;;;6.60;99.90;;;7.50;85.49;-19982.03;5011224;28;20228;-60
2022/03/26 00:20:57;;;;;;;46.07;31.40;;;6.60;99.90;;;7.56;85.25;-19984.25;5011119;28;20283;-60
2022/03/26 00:23:26;;;;;;;43.10;29.80;;;6.60;99.90;;;7.48;85.53;-19981.53;5011521;28;20325;-59
2022/03/26 00:25:55;;;;;;;45.27;30.87;;;6.60;99.90;;;7.42;86.06;-19979.47;5010939;28;20232;-58
2022/03/26 00:28:23;;;;;;;42.97;29.33;;;6.60;99.90;;;7.37;86.39;-19977.94;5011095;28;20231;-59
2022/03/26 00:30:52;;;;;;;44.37;30.90;;;6.50;99.90;;;7.37;86.39;-19977.75;5011055;28;20586;-59
2022/03/26 00:33:21;;;;;;;45.40;31.03;;;6.50;99.90;;;7.42;85.98;-19979.63;5011070;28;20230;-58
2022/03/26 00:35:49;;;;;;;41.67;29.83;;;6.50;99.90;;;7.31;86.45;-19975.72;5011191;28;20670;-58
2022/03/26 00:38:17;;;;;;;47.07;30.77;;;6.50;99.90;;;7.47;85.39;-19981.00;5011056;28;20321;-57
2022/03/26 00:40:45;;;;;;;45.20;29.93;;;6.50;99.90;;;7.60;85.01;-19985.63;5010709;28;20317;-59
2022/03/26 00:43:14;;;;;;;50.17;32.17;;;6.60;99.90;;;7.46;85.64;-19980.66;5010620;28;20320;-59
2022/03/26 00:45:43;;;;;;;46.13;31.23;;;6.60;99.90;;;7.70;84.08;-19988.88;5010801;28;20319;-59
2022/03/26 00:48:13;;;;;;;45.27;32.27;;;6.70;99.90;;;7.49;85.10;-19981.88;5010783;28;20221;-56
2022/03/26 00:50:41;;;;;;;44.50;30.47;;;6.70;99.90;;;7.47;85.14;-19981.19;5011758;28;20212;-57
2022/03/26 00:53:09;;;;;;;48.77;30.70;;;6.60;99.90;;;7.45;84.84;-19980.50;5013169;28;20705;-60
2022/03/26 00:55:37;;;;;;;47.13;30.20;;;6.60;99.90;;;7.43;85.04;-19979.97;5014717;28;20225;-57
2022/03/26 00:58:05;;;;;;;41.87;29.60;;;6.60;99.90;;;7.35;85.55;-19977.25;5014135;28;20260;-57
2022/03/26 01:00:33;;;;;;;42.50;28.23;;;6.50;99.90;;;7.34;85.88;-19976.72;5014921;28;20233;-59
2022/03/26 01:03:02;;;;;;;46.20;30.40;;;6.50;99.90;;;7.22;86.71;-19972.81;5014784;28;20215;-59
2022/03/26 01:05:34;;;;;;;41.07;28.63;;;6.40;99.90;;;7.23;86.95;-19972.97;5015051;28;20220;-58
2022/03/26 01:08:02;;;;;;;45.07;29.00;;;6.40;99.90;;;7.30;85.96;-19975.53;5014395;28;20232;-58
2022/03/26 01:10:30;;;;;;;41.37;28.73;;;6.40;99.90;;;7.18;86.52;-19971.44;5014959;28;20345;-58
2022/03/26 01:12:58;;;;;;;42.17;28.77;;;6.40;99.90;;;7.31;85.47;-19975.72;5013995;28;20248;-58
2022/03/26 01:15:26;;;;;;;44.70;29.07;;;6.40;99.90;;;7.44;84.97;-19980.31;5014366;28;20300;-58
2022/03/26 01:17:54;;;;;;;44.43;28.20;;;6.40;99.90;;;7.19;85.77;-19971.78;5014869;28;20210;-58
2022/03/26 01:20:23;;;;;;;42.67;29.00;;;6.40;99.90;;;7.15;86.06;-19970.25;5015006;28;20228;-58
2022/03/26 01:22:52;;;;;;;42.20;28.40;;;6.30;99.90;;;6.98;86.55;-19964.59;5014135;28;20278;-57
2022/03/26 01:25:20;;;;;;;45.10;28.97;;;6.30;99.90;;;6.99;86.56;-19964.94;5014162;28;20326;-59
2022/03/26 01:27:48;;;;;;;43.80;29.30;;;6.20;99.90;;;6.79;87.96;-19958.13;5013934;28;20616;-59
2022/03/26 01:30:16;;;;;;;44.27;29.53;;;6.10;99.90;;;6.78;88.60;-19957.59;5014361;28;20233;-57
2022/03/26 01:32:45;;;;;;;42.43;29.43;;;6.10;99.90;;;6.66;88.74;-19953.66;5014334;28;20215;-58
2022/03/26 01:35:14;;;;;;;43.30;28.90;;;6.00;99.90;;;6.69;89.27;-19954.69;5014150;28;20815;-59
2022/03/26 01:37:42;;;;;;;38.40;27.43;;;6.00;99.90;;;6.65;89.59;-19953.31;5013773;28;20226;-58
2022/03/26 01:40:13;;;;;;;41.20;28.87;;;5.90;99.90;;;6.59;89.10;-19951.09;5014167;28;20241;-58
2022/03/26 01:42:42;;;;;;;42.30;28.10;;;5.90;99.90;;;6.45;90.20;-19946.50;5013705;28;20726;-57
2022/03/26 01:45:12;;;;;;;40.40;28.47;;;5.90;99.90;;;6.54;89.84;-19949.56;5013681;28;20228;-57
2022/03/26 01:47:41;;;;;;;46.07;29.43;;;5.80;99.90;;;6.88;88.00;-19961.00;5014346;28;20235;-57
2022/03/26 01:50:09;;;;;;;45.00;28.63;;;5.90;99.90;;;6.65;88.88;-19953.16;5013668;28;20227;-58
2022/03/26 01:52:37;;;;;;;45.03;28.37;;;5.90;99.90;;;6.60;89.47;-19951.63;5013454;28;20313;-58
2022/03/26 01:55:07;;;;;;;46.93;29.53;;;5.80;99.90;;;6.64;89.39;-19952.97;5013518;28;20751;-58
2022/03/26 01:57:37;;;;;;;41.17;27.53;;;5.80;99.90;;;6.57;89.38;-19950.59;5013388;28;20228;-60
2022/03/26 02:00:07;;;;;;;42.07;27.57;;;5.80;99.90;;;6.59;89.81;-19951.28;5013685;28;20216;-58
2022/03/26 02:02:37;;;;;;;48.93;28.67;;;5.80;99.90;;;6.64;89.45;-19952.97;5013925;28;20198;-59
2022/03/26 02:05:06;;;;;;;48.30;29.40;;;5.80;99.90;;;6.49;90.13;-19947.84;5012000;28;20251;-59
2022/03/26 02:07:34;;;;;;;42.33;29.40;;;5.70;99.90;;;6.47;90.23;-19947.19;5013253;28;20848;-57
2022/03/26 02:10:02;;;;;;;49.37;30.13;;;5.70;99.90;;;6.32;91.10;-19942.03;5013432;28;20225;-58
2022/03/26 02:12:31;;;;;;;45.77;30.13;;;5.60;99.90;;;6.38;91.89;-19943.94;5012594;28;20224;-59
2022/03/26 02:15:00;;;;;;;46.83;30.00;;;5.60;99.90;;;6.51;91.24;-19948.53;5010879;28;20246;-59
2022/03/26 02:17:28;;;;;;;50.10;29.83;;;5.60;99.90;;;6.60;91.05;-19951.63;4994161;28;20292;-60
2022/03/26 02:19:59;;;;;;;43.83;28.97;;;5.60;99.90;;;6.46;90.86;-19946.66;4993637;28;20284;-58
2022/03/26 02:22:29;;;;;;;47.03;29.70;;;5.60;99.90;;;6.41;91.25;-19945.13;4993560;28;20316;-59
2022/03/26 02:24:58;;;;;;;44.00;28.93;;;5.60;99.90;;;6.28;92.09;-19940.50;4993625;28;20238;-56
2022/03/26 02:27:30;;;;;;;43.00;28.63;;;5.50;99.90;;;6.37;92.13;-19943.59;4993435;28;20225;-61
2022/03/26 02:29:58;;;;;;;40.77;27.47;;;5.50;99.90;;;6.30;91.96;-19941.19;4994249;28;20195;-59
2022/03/26 02:32:29;;;;;;;44.83;29.10;;;5.50;99.90;;;6.31;92.04;-19941.69;4994275;28;20287;-59
2022/03/26 02:34:58;;;;;;;45.17;27.60;;;5.50;99.90;;;6.31;92.16;-19941.69;4993733;28;20255;-59
2022/03/26 02:37:30;;;;;;;41.53;27.00;;;5.50;99.90;;;6.29;92.46;-19941.03;4993855;28;20536;-58
2022/03/26 02:39:59;;;;;;;45.50;26.77;;;5.50;99.90;;;6.46;91.88;-19946.66;4993450;28;20227;-57
2022/03/26 02:42:27;;;;;;;39.37;26.57;;;5.50;99.90;;;6.40;92.16;-19944.78;4993436;28;20234;-59
2022/03/26 02:44:55;;;;;;;41.47;26.27;;;5.50;99.90;;;6.49;91.48;-19947.69;4993485;28;20733;-60
2022/03/26 02:47:23;;;;;;;41.23;26.70;;;5.60;99.90;;;6.44;91.42;-19946.16;4993589;28;20305;-57
2022/03/26 02:49:51;;;;;;;43.17;26.47;;;5.60;99.90;;;6.43;91.66;-19945.63;4993330;28;20245;-58
2022/03/26 02:52:22;;;;;;;42.10;26.50;;;5.50;99.90;;;6.24;92.17;-19939.31;4994422;28;20323;-60
2022/03/26 02:54:50;;;;;;;43.50;26.70;;;5.50;99.90;;;6.25;92.66;-19939.66;5012871;28;20273;-58
2022/03/26 02:57:18;;;;;;;38.83;26.03;;;5.40;99.90;;;6.18;92.64;-19937.25;5012699;28;20309;-59
2022/03/26 02:59:46;;;;;;;41.13;26.30;;;5.40;99.90;;;6.06;93.41;-19933.34;5013179;28;20555;-57
2022/03/26 03:02:14;;;;;;;43.27;25.90;;;5.30;99.90;;;6.27;92.24;-19940.16;5012923;28;20257;-58
2022/03/26 03:04:42;;;;;;;39.50;26.97;;;5.30;99.90;;;6.19;92.60;-19937.78;5012701;28;20259;-58
2022/03/26 03:07:10;;;;;;;45.33;28.30;;;5.30;99.90;;;5.85;94.24;-19926.16;5012577;28;20226;-58
2022/03/26 03:09:40;;;;;;;41.97;27.53;;;5.20;99.90;;;5.87;95.33;-19926.66;5012471;28;20226;-59
2022/03/26 03:12:09;;;;;;;44.03;26.87;;;5.10;99.90;;;5.82;96.10;-19924.94;5012475;28;20672;-59
2022/03/26 03:14:37;;;;;;;46.40;28.73;;;5.10;99.90;;;5.88;96.24;-19927.19;5012261;28;20745;-59
2022/03/26 03:17:06;;;;;;;46.87;28.80;;;5.10;99.90;;;6.00;95.89;-19931.13;4992908;28;20228;-58
2022/03/26 03:19:34;;;;;;;42.10;28.40;;;5.10;99.90;;;5.88;96.77;-19927.00;4992833;28;20248;-60
2022/03/26 03:22:02;;;;;;;42.10;29.80;;;5.00;99.90;;;5.99;97.21;-19930.75;4993060;28;20318;-59
2022/03/26 03:24:30;;;;;;;42.37;28.93;;;5.00;99.90;;;6.19;96.06;-19937.59;4992336;28;20319;-58
2022/03/26 03:26:59;;;;;;;45.43;29.07;;;5.10;99.90;;;6.01;96.85;-19931.63;4992292;28;20290;-58
2022/03/26 03:29:27;;;;;;;48.07;28.57;;;5.10;99.90;;;5.97;97.11;-19930.09;4992614;28;20209;-58
2022/03/26 03:31:55;;;;;;;47.33;28.47;;;5.10;99.90;;;5.85;98.62;-19925.97;4992694;28;20232;-59
2022/03/26 03:34:24;;;;;;;41.17;27.33;;;5.00;99.90;;;5.85;98.61;-19926.16;4992453;28;20321;-59
2022/03/26 03:36:52;;;;;;;48.87;29.83;;;5.00;99.90;;;5.66;99.86;-19919.47;4992481;28;20255;-59
2022/03/26 03:39:19;;;;;;;48.00;29.00;;;4.90;99.90;;;5.66;100.00;-19919.47;4992289;28;20238;-59
2022/03/26 03:41:47;;;;;;;47.97;29.07;;;4.90;99.90;;;5.69;100.00;-19920.69;4993246;28;20206;-60
2022/03/26 03:44:17;;;;;;;39.83;27.43;;;4.80;99.90;;;5.66;100.00;-19919.66;4991683;28;20326;-60
2022/03/26 03:46:45;;;;;;;43.70;29.23;;;4.80;99.90;;;5.63;100.00;-19918.47;4992109;28;20267;-59
2022/03/26 03:49:14;;;;;;;45.53;27.57;;;4.80;99.90;;;5.86;98.66;-19926.31;4991988;28;20234;-60
2022/03/26 03:51:42;;;;;;;42.40;27.37;;;4.80;99.90;;;5.89;96.95;-19927.34;4992656;28;20302;-58
2022/03/26 03:54:10;;;;;;;41.83;27.23;;;4.90;99.90;;;5.66;98.64;-19919.66;5007934;28;20318;-59
2022/03/26 03:56:38;;;;;;;42.90;26.93;;;4.90;99.90;;;5.67;98.55;-19920.00;5012001;28;20295;-59
2022/03/26 03:59:06;;;;;;;42.93;27.67;;;4.90;99.90;;;5.62;98.43;-19918.13;5011149;28;20258;-59
2022/03/26 04:01:36;;;;;;;41.40;27.30;;;4.90;99.90;;;5.66;98.19;-19919.66;5011719;28;20261;-59
2022/03/26 04:04:04;;;;;;;40.53;26.73;;;4.80;99.90;;;5.75;97.33;-19922.72;5011391;28;20226;-57
2022/03/26 04:06:32;;;;;;;38.13;26.13;;;4.80;99.90;;;5.77;96.81;-19923.41;5011517;28;20223;-60
2022/03/26 04:09:00;;;;;;;43.83;26.23;;;4.80;99.90;;;5.95;95.58;-19929.41;5011911;28;20296;-58
2022/03/26 04:11:29;;;;;;;46.27;27.30;;;4.90;99.90;;;5.91;95.24;-19928.22;5012557;28;20302;-59
2022/03/26 04:13:57;;;;;;;42.57;27.40;;;4.90;99.90;;;5.62;96.83;-19918.13;5011086;28;20238;-57
2022/03/26 04:16:25;;;;;;;37.67;25.87;;;4.90;99.90;;;5.41;98.33;-19910.94;4997443;28;20310;-59
2022/03/26 04:18:54;;;;;;;40.67;26.10;;;4.70;99.90;;;5.54;98.08;-19915.38;4991904;28;20230;-57
2022/03/26 04:21:22;;;;;;;39.43;26.70;;;4.70;99.90;;;5.59;98.05;-19917.09;4992075;28;20306;-60
2022/03/26 04:23:51;;;;;;;41.90;26.87;;;4.70;99.90;;;5.64;97.99;-19918.78;4992485;28;20213;-58
2022/03/26 04:26:19;;;;;;;41.07;26.27;;;4.70;99.90;;;5.48;98.74;-19913.50;4990834;28;20634;-58
2022/03/26 04:28:47;;;;;;;44.23;26.50;;;4.60;99.90;;;5.68;98.93;-19920.16;4991298;28;20758;-58
2022/03/26 04:31:15;;;;;;;38.37;26.60;;;4.70;99.90;;;5.55;98.94;-19915.88;4991542;28;20317;-58
2022/03/26 04:33:44;;;;;;;40.87;27.23;;;4.70;99.90;;;5.35;100.00;-19908.88;4991975;28;20645;-60
2022/03/26 04:36:13;;;;;;;41.40;26.73;;;4.60;99.90;;;5.46;99.36;-19912.66;4991768;28;20213;-60
2022/03/26 04:38:41;;;;;;;43.10;27.30;;;4.60;99.90;;;5.56;98.94;-19916.25;4991989;28;20775;-58
2022/03/26 04:41:09;;;;;;;41.57;26.27;;;4.60;99.90;;;5.61;98.22;-19917.78;4991360;28;20223;-61
2022/03/26 04:43:37;;;;;;;38.03;25.33;;;4.60;99.90;;;5.41;99.19;-19910.94;4991588;28;20253;-57
2022/03/26 04:46:05;;;;;;;41.37;26.40;;;4.50;99.90;;;5.18;100.00;-19903.25;4991484;28;20230;-59
2022/03/26 04:48:34;;;;;;;42.73;26.83;;;4.50;99.90;;;5.16;100.00;-19902.41;4991340;28;20280;-57
2022/03/26 04:51:02;;;;;;;39.33;25.13;;;4.40;99.90;;;5.34;99.99;-19908.72;4991465;28;20290;-60
2022/03/26 04:53:31;;;;;;;37.77;25.07;;;4.50;99.90;;;5.41;98.97;-19911.09;5002563;28;20199;-59
2022/03/26 04:55:59;;;;;;;38.57;24.70;;;4.50;99.90;;;5.24;99.95;-19905.31;5010645;28;20250;-59
2022/03/26 04:58:27;;;;;;;39.83;27.00;;;4.50;99.90;;;5.28;99.83;-19906.66;5010717;28;20233;-59
2022/03/26 05:00:55;;;;;;;39.77;25.63;;;4.50;99.90;;;5.44;98.71;-19912.13;5010325;28;20233;-58
2022/03/26 05:03:24;;;;;;;37.50;24.67;;;4.50;99.90;;;5.49;97.90;-19913.66;5011035;28;20228;-58
2022/03/26 05:05:52;;;;;;;42.20;25.93;;;4.50;99.90;;;5.31;98.22;-19907.69;5011059;28;20231;-59
2022/03/26 05:08:20;;;;;;;40.97;25.83;;;4.50;99.90;;;5.38;98.16;-19909.91;5010663;28;20318;-59
2022/03/26 05:10:49;;;;;;;39.57;24.93;;;4.50;99.90;;;5.52;97.49;-19914.69;5010861;28;20598;-59
2022/03/26 05:13:17;;;;;;;38.63;24.73;;;4.60;99.90;;;5.44;97.75;-19912.13;5010517;28;20255;-58
2022/03/26 05:15:45;;;;;;;42.67;25.57;;;4.60;99.90;;;5.37;98.37;-19909.75;5001978;28;20319;-59
2022/03/26 05:18:13;;;;;;;41.67;25.30;;;4.50;99.90;;;5.61;95.96;-19917.78;4990775;28;20813;-56
2022/03/26 05:20:42;;;;;;;38.37;25.50;;;4.60;99.90;;;5.47;97.09;-19912.97;4991787;28;20207;-60
2022/03/26 05:23:11;;;;;;;40.70;24.83;;;4.60;99.90;;;5.36;98.00;-19909.22;4990785;28;20732;-59
2022/03/26 05:25:39;;;;;;;43.37;25.77;;;4.60;99.90;;;5.55;96.88;-19915.72;4990498;28;20248;-59
2022/03/26 05:28:08;;;;;;;38.73;25.40;;;4.60;99.90;;;5.52;97.68;-19914.88;4990847;28;20254;-61
2022/03/26 05:30:38;;;;;;;40.37;25.70;;;4.60;99.90;;;5.50;97.28;-19914.19;4990694;28;20591;-60
2022/03/26 05:33:06;;;;;;;37.37;24.90;;;4.70;99.90;;;5.65;96.31;-19919.31;4990865;28;20652;-61
2022/03/26 05:35:34;;;;;;;42.40;26.33;;;4.70;99.90;;;5.59;96.91;-19917.09;4991280;28;20643;-59
2022/03/26 05:38:04;;;;;;;39.97;25.17;;;4.70;99.90;;;5.65;96.52;-19919.16;4991479;28;20253;-58
2022/03/26 05:40:32;;;;;;;40.77;25.50;;;4.80;99.90;;;6.00;94.30;-19931.28;4994374;28;20255;-57
2022/03/26 05:43:01;;;;;;;39.20;23.97;;;4.90;99.90;;;5.95;93.80;-19929.56;4994121;28;20226;-60
2022/03/26 05:45:31;;;;;;;39.23;25.00;;;5.00;99.90;;;5.83;94.57;-19925.47;4994386;28;20230;-59
2022/03/26 05:48:02;;;;;;;36.90;23.53;;;5.00;99.90;;;5.82;94.83;-19925.13;4993917;28;20221;-58
2022/03/26 05:50:30;;;;;;;41.57;25.43;;;5.00;99.90;;;6.15;93.21;-19936.25;4994619;28;20283;-60
2022/03/26 05:52:59;;;;;;;36.57;24.80;;;5.10;99.90;;;6.10;92.50;-19934.69;5000009;28;20228;-60
2022/03/26 05:55:27;;;;;;;36.77;24.87;;;5.20;99.90;;;6.16;92.67;-19936.75;5013858;28;20315;-58
2022/03/26 05:57:56;;;;;;;36.97;24.93;;;5.20;99.90;;;6.19;91.87;-19937.78;5013190;28;20314;-59
2022/03/26 06:00:24;;;;;;;38.50;24.73;;;5.30;99.90;;;6.16;91.58;-19936.56;5013507;28;20261;-58
2022/03/26 06:02:53;;;;;;;36.70;24.73;;;5.30;99.90;;;6.13;91.63;-19935.56;5013938;28;20208;-60
2022/03/26 06:05:21;;;;;;;38.50;25.37;;;5.30;99.90;;;6.15;92.19;-19936.41;5013579;28;20223;-58
2022/03/26 06:07:50;;;;;;;37.33;24.43;;;5.40;99.90;;;6.33;92.15;-19942.38;5012840;28;20244;-60
2022/03/26 06:10:18;;;;;;;38.93;24.87;;;5.40;99.90;;;6.42;91.55;-19945.47;5013351;28;20231;-59
2022/03/26 06:12:46;;;;;;;40.40;25.03;;;5.40;99.90;;;6.43;92.20;-19945.81;5012918;28;20228;-58
2022/03/26 06:15:14;;;;;;;40.40;23.97;;;5.50;99.90;;;6.47;92.50;-19947.00;5008847;28;20207;-59
2022/03/26 06:18:05;;;;;;;36.77;23.80;;;5.50;99.90;;;6.72;91.11;-19955.53;4993238;28;20214;-59
2022/03/26 06:20:33;;;;;;;39.87;25.30;;;5.60;99.90;;;6.75;90.67;-19956.56;4994275;28;20189;-60
2022/03/26 06:23:01;;;;;;;38.60;25.13;;;5.70;99.90;;;6.76;91.14;-19956.91;4993239;28;20300;-59
2022/03/26 06:25:31;;;;;;;39.87;24.37;;;5.70;99.90;;;6.85;90.82;-19960.16;4993545;28;20281;-59
2022/03/26 06:28:00;;;;;;;38.73;24.67;;;5.80;99.90;;;6.88;89.91;-19961.19;4992829;28;20319;-59
2022/03/26 06:30:28;;;;;;;39.53;25.40;;;5.90;99.90;;;6.80;90.13;-19958.28;4993414;28;20264;-60
2022/03/26 06:32:56;;;;;;;37.77;24.77;;;6.00;99.90;;;6.87;90.26;-19960.84;4993435;28;20210;-59
2022/03/26 06:35:27;;;;;;;38.70;24.33;;;6.00;99.90;;;7.02;90.32;-19965.78;4993668;28;20749;-59
2022/03/26 06:37:55;;;;;;;35.70;23.87;;;6.20;99.90;;;7.12;89.86;-19969.22;4993128;28;20773;-60
2022/03/26 06:40:23;;;;;;;35.63;23.73;;;6.30;99.90;;;7.30;89.07;-19975.53;4993350;28;20239;-61
2022/03/26 06:42:51;;;;;;;40.77;25.57;;;6.40;99.90;;;7.34;88.68;-19976.72;4993262;28;20320;-59
2022/03/26 06:45:19;;;;;;;35.93;24.40;;;6.50;99.90;;;7.35;87.98;-19977.25;4993137;28;20234;-61
2022/03/26 06:47:47;;;;;;;34.77;25.10;;;6.50;99.90;;;7.54;87.89;-19983.41;4993528;28;20268;-59
2022/03/26 06:50:15;;;;;;;38.43;24.30;;;6.70;99.90;;;7.76;86.94;-19990.91;4992094;28;20257;-60
2022/03/26 06:52:45;;;;;;;36.90;24.50;;;6.80;99.90;;;7.86;85.75;-19994.34;4996415;28;20221;-60
2022/03/26 06:55:13;;;;;;;37.83;25.47;;;6.90;99.90;;;7.91;85.13;-19996.22;5012637;28;20743;-60
2022/03/26 06:57:42;;;;;;;35.30;24.83;;;7.00;99.90;;;8.21;83.53;-20006.28;5012354;28;20327;-61
2022/03/26 07:00:13;;;;;;;37.97;24.83;;;7.10;99.90;;;8.23;82.74;-20006.97;5012446;28;20242;-60
2022/03/26 07:02:41;;;;;;;33.60;23.67;;;7.20;99.90;;;8.23;83.83;-20007.16;5012992;28;20280;-60
2022/03/26 07:05:11;;;;;;;39.13;24.00;;;7.30;99.90;;;8.37;82.42;-20011.94;5013249;28;20263;-60
2022/03/26 07:07:39;;;;;;;37.43;23.90;;;7.40;99.90;;;8.45;81.44;-20014.50;5012105;28;20767;-60
2022/03/26 07:10:10;;;;;;;35.70;23.33;;;7.50;99.90;;;8.53;81.01;-20017.41;5012465;28;20226;-60
2022/03/26 07:12:39;;;;;;;39.57;23.50;;;7.60;99.90;;;8.61;81.32;-20020.13;5012060;28;20736;-60
2022/03/26 07:15:08;;;;;;;37.83;24.70;;;7.60;99.90;;;8.71;80.17;-20023.22;5008372;28;20205;-60
2022/03/26 07:17:39;;;;;;;35.97;22.53;;;7.70;99.90;;;8.84;80.23;-20027.84;4993240;28;20207;-59
2022/03/26 07:20:09;;;;;;;36.53;24.43;;;7.80;99.90;;;8.94;79.36;-20031.25;4992438;28;20927;-60
2022/03/26 07:22:37;;;;;;;37.13;25.13;;;7.90;99.90;;;8.96;79.28;-20031.94;4992339;28;20262;-60
2022/03/26 07:25:08;;;;;;;38.37;24.40;;;8.00;99.90;;;9.06;79.86;-20035.34;4992846;28;20329;-58
2022/03/26 07:27:38;;;;;;;35.13;23.27;;;8.10;99.90;;;9.08;79.98;-20036.03;4992204;28;20226;-59
2022/03/26 07:30:08;;;;;;;37.03;25.00;;;8.10;99.90;;;9.23;80.16;-20041.16;4992092;28;20183;-60
2022/03/26 07:32:36;;;;;;;39.13;24.87;;;8.20;99.90;;;9.37;79.12;-20045.94;4992670;28;20218;-60
2022/03/26 07:35:06;;;;;;;37.57;24.57;;;8.30;99.90;;;9.62;78.63;-20054.47;4992218;28;20230;-59
2022/03/26 07:37:34;;;;;;;37.60;24.50;;;8.50;99.90;;;9.72;77.99;-20057.88;4991936;28;20761;-62
2022/03/26 07:40:03;;;;;;;34.30;23.13;;;8.60;99.90;;;9.80;76.95;-20060.63;4991905;28;20227;-59
2022/03/26 07:42:31;;;;;;;37.07;24.27;;;8.70;99.90;;;9.93;76.30;-20064.91;4991935;28;20229;-60
2022/03/26 07:45:01;;;;;;;36.63;23.37;;;8.80;99.90;;;9.98;76.66;-20066.59;4992732;28;20678;-59
2022/03/26 07:47:28;;;;;;;38.60;24.47;;;8.90;99.90;;;10.06;76.00;-20069.34;4992873;28;20265;-59
2022/03/26 07:49:56;;;;;;;35.87;24.37;;;9.00;99.90;;;10.12;76.26;-20071.22;5003308;28;20226;-61
2022/03/26 07:52:24;;;;;;;35.30;24.47;;;9.10;99.90;;;10.21;76.35;-20074.47;5011277;28;20280;-60
2022/03/26 07:54:52;;;;;;;33.67;22.83;;;9.20;99.90;;;10.33;76.06;-20078.41;5011579;28;20276;-60
2022/03/26 07:57:20;;;;;;;37.10;23.27;;;9.30;99.90;;;10.51;75.36;-20084.53;5010968;28;20301;-60
2022/03/26 07:59:48;;;;;;;39.40;23.87;;;9.40;99.90;;;10.68;74.16;-20090.53;5011819;28;20297;-59
2022/03/26 08:02:18;;;;;;;37.70;24.17;;;9.50;99.90;;;10.75;74.25;-20092.75;5011204;28;20222;-59
2022/03/26 08:04:46;;;;;;;33.60;23.90;;;9.70;99.90;;;10.95;72.61;-20099.56;5010904;28;20227;-59
2022/03/26 08:07:14;;;;;;;37.73;25.17;;;9.80;99.90;;;11.08;72.55;-20104.00;5010909;28;20230;-59
2022/03/26 08:09:42;;;;;;;35.23;23.20;;;9.90;99.90;;;11.11;72.50;-20104.88;5010977;28;20305;-59
2022/03/26 08:12:11;;;;;;;37.50;24.33;;;10.00;99.90;;;11.34;71.64;-20112.91;5010678;28;20666;-59
2022/03/26 08:14:39;;;;;;;40.47;24.90;;;10.10;99.90;;;11.39;70.80;-20114.59;5011388;28;20218;-59
2022/03/26 08:17:10;;;;;;;41.57;26.23;;;10.30;99.90;;;11.60;69.18;-20121.78;4991250;28;20249;-60
2022/03/26 08:19:40;;;;;;;40.83;24.77;;;10.40;99.90;;;11.57;70.00;-20120.75;4991289;28;20262;-59
2022/03/26 08:22:08;;;;;;;36.73;23.70;;;10.50;99.90;;;11.82;69.15;-20129.28;4991348;28;20310;-60
2022/03/26 08:24:36;;;;;;;39.03;25.70;;;10.60;99.90;;;11.99;68.50;-20134.94;4991387;28;20239;-58
2022/03/26 08:27:05;;;;;;;35.47;24.07;;;10.70;99.90;;;12.09;68.68;-20138.50;4991474;28;20379;-59
2022/03/26 08:29:33;;;;;;;38.80;23.93;;;10.80;99.90;;;12.06;67.52;-20137.31;4991237;28;20326;-60
2022/03/26 08:32:02;;;;;;;41.53;26.00;;;10.80;99.90;;;12.18;66.78;-20141.59;4991106;28;20710;-58
2022/03/26 08:34:30;;;;;;;42.13;26.10;;;10.90;99.90;;;12.11;67.32;-20139.03;4990865;28;20315;-60
2022/03/26 08:37:00;;;;;;;38.43;24.37;;;10.90;99.90;;;12.47;66.28;-20151.16;4991499;28;20243;-60
2022/03/26 08:39:28;;;;;;;37.10;24.40;;;11.00;99.90;;;12.45;66.30;-20150.47;4991021;28;20227;-59
2022/03/26 08:41:56;;;;;;;40.50;25.90;;;11.20;99.90;;;12.56;66.40;-20154.22;4991910;28;20203;-59
2022/03/26 08:44:24;;;;;;;36.93;24.00;;;11.30;99.90;;;12.77;65.25;-20161.56;4991276;28;20302;-60
2022/03/26 08:46:52;;;;;;;38.07;25.07;;;11.40;99.90;;;12.92;64.62;-20166.53;5008153;28;20759;-59
2022/03/26 08:49:20;;;;;;;37.87;24.43;;;11.50;99.90;;;12.80;64.61;-20162.59;5010245;28;20317;-61
2022/03/26 08:51:48;;;;;;;39.80;24.77;;;11.60;99.90;;;12.93;64.40;-20166.84;5010714;28;20222;-60
2022/03/26 08:54:17;;;;;;;38.43;25.47;;;11.60;99.90;;;13.09;64.19;-20172.31;5010660;28;23262;-59
2022/03/26 08:56:45;;;;;;;37.47;24.47;;;11.70;99.90;;;13.22;64.33;-20176.94;5012024;28;20199;-59
2022/03/26 08:59:13;;;;;;;35.13;23.50;;;11.90;99.90;;;13.41;63.40;-20183.25;5010393;28;20631;-58
2022/03/26 09:01:42;;;;;;;36.07;23.57;;;12.00;99.90;;;13.57;63.24;-20188.53;5010636;28;20240;-60
2022/03/26 09:04:11;;;;;;;35.93;22.53;;;12.10;99.90;;;13.61;63.51;-20189.91;5010209;28;20234;-59
2022/03/26 09:06:39;;;;;;;34.33;23.17;;;12.30;99.90;;;13.68;63.61;-20192.31;5010900;28;20237;-60
2022/03/26 09:09:07;;;;;;;36.67;23.47;;;12.30;99.90;;;13.79;63.46;-20196.06;5010021;28;20670;-59
2022/03/26 09:11:37;;;;;;;33.63;22.33;;;12.40;99.90;;;13.82;64.39;-20197.25;5010653;28;20205;-58
2022/03/26 09:14:06;;;;;;;34.83;22.37;;;12.40;99.90;;;14.08;63.99;-20205.94;5012675;28;20752;-59
2022/03/26 09:16:34;;;;;;;33.10;22.37;;;12.60;99.90;;;14.26;63.13;-20212.09;4999365;28;20247;-60
2022/03/26 09:19:02;;;;;;;33.47;22.33;;;12.80;99.90;;;14.35;62.95;-20215.34;4994764;28;20227;-60
2022/03/26 09:21:30;;;;;;;31.77;22.03;;;12.90;99.90;;;14.35;63.28;-20215.19;4994883;28;20278;-56
2022/03/26 09:23:58;;;;;;;36.63;22.03;;;12.90;99.90;;;14.41;63.27;-20217.38;4994877;28;20287;-59
2022/03/26 09:26:26;;;;;;;35.50;21.97;;;13.00;99.90;;;14.39;62.99;-20216.53;4995279;28;20209;-59
2022/03/26 09:28:55;;;;;;;35.60;22.70;;;13.10;99.90;;;14.48;62.98;-20219.78;4993975;28;20244;-61
2022/03/26 09:31:23;;;;;;;30.80;21.13;;;13.10;99.90;;;14.56;62.59;-20222.34;4994269;28;20219;-59
2022/03/26 09:33:52;;;;;;;31.70;21.57;;;13.20;99.90;;;14.75;62.18;-20228.66;4994479;28;20348;-61
2022/03/26 09:36:19;;;;;;;32.53;21.93;;;13.40;99.90;;;14.74;62.08;-20228.31;4994775;28;20247;-61
2022/03/26 09:38:48;;;;;;;33.33;21.47;;;13.40;99.90;;;14.66;62.32;-20225.94;4994726;28;20303;-61
2022/03/26 09:41:16;;;;;;;30.23;21.90;;;13.40;99.90;;;14.64;62.92;-20225.06;4996226;28;20238;-60
2022/03/26 09:43:45;;;;;;;30.67;21.43;;;13.40;99.90;;;14.68;62.97;-20226.59;5013682;28;20258;-60
2022/03/26 09:46:14;;;;;;;28.33;20.80;;;13.40;99.90;;;14.84;62.71;-20231.91;5013485;28;20256;-61
2022/03/26 09:48:43;;;;;;;31.77;20.43;;;13.50;99.90;;;14.95;62.03;-20235.47;5013546;28;20226;-61
2022/03/26 09:51:16;;;;;;;29.43;20.63;;;13.60;99.90;;;15.06;61.80;-20239.41;5013805;28;20206;-62
2022/03/26 09:53:45;;;;;;;28.70;19.17;;;13.70;99.90;;;15.19;61.51;-20243.84;5014123;28;20195;-59
2022/03/26 09:56:13;;;;;;;28.07;18.60;;;13.80;99.90;;;15.21;61.06;-20244.34;5013238;28;20222;-60
2022/03/26 09:58:41;;;;;;;27.30;19.63;;;13.90;99.90;;;15.19;61.47;-20243.66;5013233;28;20230;-59
2022/03/26 10:01:09;;;;;;;25.87;18.17;;;13.90;99.90;;;15.39;60.86;-20250.66;5013063;28;20240;-60
2022/03/26 10:03:40;;;;;;;27.53;19.07;;;14.00;99.90;;;15.45;61.27;-20252.56;5012980;28;20627;-59
2022/03/26 10:06:13;;;;;;;25.57;19.37;;;14.10;99.90;;;15.55;61.00;-20255.97;5013154;28;20332;-59
2022/03/26 10:08:41;;;;;;;28.33;18.10;;;14.20;99.90;;;15.70;61.17;-20261.25;5013197;28;20234;-60
2022/03/26 10:11:21;;;;;;;24.50;17.73;;;14.30;99.90;;;16.00;60.15;-20271.31;5013023;28;20222;-59
2022/03/26 10:13:52;;;;;;;21.85;16.30;;;14.50;99.90;;;15.97;58.96;-20270.28;5012985;28;20231;-60
2022/03/26 10:16:20;;;;;;;22.80;15.57;;;14.60;99.90;;;16.07;58.80;-20273.53;5012707;28;20314;-60